createdAt,value
2023-02-02T00:00:45.921Z,98282.61
2023-02-02T00:01:50.038Z,98285.57
2023-02-02T00:02:54.626Z,98296.16
2023-02-02T00:03:59.413Z,98281.59
2023-02-02T00:05:03.649Z,98290.7
2023-02-02T00:06:07.786Z,98285.19
2023-02-02T00:07:11.872Z,98288.27
2023-02-02T00:08:15.996Z,98285.88
2023-02-02T00:09:20.437Z,98286.41
2023-02-02T00:10:24.566Z,98294.09
2023-02-02T00:11:28.683Z,98298.83
2023-02-02T00:12:32.795Z,98295.14
2023-02-02T00:13:36.900Z,98297.08
2023-02-02T00:14:41.023Z,98291.04
2023-02-02T00:15:45.161Z,98300.8
2023-02-02T00:16:49.249Z,98305.72
2023-02-02T00:17:53.382Z,98317.42
2023-02-02T00:18:57.493Z,98313.94
2023-02-02T00:20:01.614Z,98309.61
2023-02-02T00:21:05.826Z,98306.12
2023-02-02T00:22:09.936Z,98313.73
2023-02-02T00:23:14.037Z,98310.64
2023-02-02T00:24:18.187Z,98312.59
2023-02-02T00:25:22.858Z,98309
2023-02-02T00:26:27.618Z,98315.06
2023-02-02T00:27:31.770Z,98326.87
2023-02-02T00:28:35.880Z,98317.39
2023-02-02T00:29:39.972Z,98317.81
2023-02-02T00:30:44.104Z,98319.38
2023-02-02T00:31:48.451Z,98322.86
2023-02-02T00:32:52.720Z,98322.94
2023-02-02T00:33:56.840Z,98319.16
2023-02-02T00:35:00.946Z,98321.92
2023-02-02T00:36:05.066Z,98318.11
2023-02-02T00:37:09.164Z,98329.41
2023-02-02T00:38:13.270Z,98326.13
2023-02-02T00:39:17.373Z,98329.63
2023-02-02T00:40:21.476Z,98324.78
2023-02-02T00:41:25.600Z,98326.95
2023-02-02T00:42:29.918Z,98333.31
2023-02-02T00:43:34.030Z,98338.77
2023-02-02T00:44:38.151Z,98341.44
2023-02-02T00:45:42.307Z,98330.64
2023-02-02T00:46:46.485Z,98335.69
2023-02-02T00:47:50.576Z,98336.2
2023-02-02T00:48:54.683Z,98344.59
2023-02-02T00:49:58.784Z,98341.23
2023-02-02T00:51:02.903Z,98340.41
2023-02-02T00:52:07.036Z,98342.64
2023-02-02T00:53:11.369Z,98340.2
2023-02-02T00:54:15.553Z,98338.34
2023-02-02T00:55:19.776Z,98341.53
2023-02-02T00:56:23.885Z,98329.2
2023-02-02T00:57:27.985Z,98335.27
2023-02-02T00:58:32.079Z,98340.28
2023-02-02T00:59:36.178Z,98336.48
2023-02-02T01:00:40.395Z,98329
2023-02-02T01:01:44.839Z,98342.23
2023-02-02T01:02:49.025Z,98346.34
2023-02-02T01:03:53.124Z,98336.99
2023-02-02T01:04:57.240Z,98342.53
2023-02-02T01:06:01.386Z,98348.61
2023-02-02T01:07:05.501Z,98334.86
2023-02-02T01:08:09.638Z,98339.27
2023-02-02T01:09:13.776Z,98335.98
2023-02-02T01:10:17.918Z,98333.31
2023-02-02T01:11:22.042Z,98338.33
2023-02-02T01:12:26.169Z,98333.51
2023-02-02T01:13:30.374Z,98341.52
2023-02-02T01:14:34.474Z,98333.3
2023-02-02T01:15:38.614Z,98332.7
2023-02-02T01:16:42.839Z,98339.45
2023-02-02T01:17:46.980Z,98326.73
2023-02-02T01:18:51.084Z,98337.09
2023-02-02T01:19:55.226Z,98328.16
2023-02-02T01:20:59.567Z,98340.3
2023-02-02T01:22:04.540Z,98330.62
2023-02-02T01:23:08.639Z,98325.28
2023-02-02T01:24:12.754Z,98327.97
2023-02-02T01:25:16.902Z,98331.85
2023-02-02T01:26:21.129Z,98338.52
2023-02-02T01:27:25.333Z,98338.43
2023-02-02T01:28:29.424Z,98339.16
2023-02-02T01:29:33.548Z,98344.5
2023-02-02T01:30:37.704Z,98342.31
2023-02-02T01:31:42.021Z,98341.41
2023-02-02T01:32:46.247Z,98348.69
2023-02-02T01:33:50.362Z,98344.89
2023-02-02T01:34:54.459Z,98346.11
2023-02-02T01:35:58.579Z,98352.59
2023-02-02T01:37:02.665Z,98351.56
2023-02-02T01:38:06.809Z,98353.82
2023-02-02T01:39:10.942Z,98346.42
2023-02-02T01:40:15.056Z,98354.54
2023-02-02T01:41:19.161Z,98345.51
2023-02-02T01:42:23.284Z,98350
2023-02-02T01:43:27.418Z,98346.41
2023-02-02T01:44:31.524Z,98347.86
2023-02-02T01:45:35.737Z,98346.73
2023-02-02T01:46:39.887Z,98347.74
2023-02-02T01:47:44.009Z,98345.19
2023-02-02T01:48:48.126Z,98348.27
2023-02-02T01:49:52.220Z,98345.51
2023-02-02T01:50:56.343Z,98359.25
2023-02-02T01:52:00.486Z,98353.08
2023-02-02T01:53:04.656Z,98359.45
2023-02-02T01:54:08.814Z,98357.91
2023-02-02T01:55:12.934Z,98356.77
2023-02-02T01:56:17.042Z,98361.09
2023-02-02T01:57:21.150Z,98357.09
2023-02-02T01:58:25.252Z,98361.59
2023-02-02T01:59:29.371Z,98360.77
2023-02-02T02:00:33.576Z,98359.95
2023-02-02T02:01:37.786Z,98364.25
2023-02-02T02:02:42.034Z,98361.81
2023-02-02T02:03:46.237Z,98370.11
2023-02-02T02:04:50.383Z,98367.98
2023-02-02T02:05:54.681Z,98366.22
2023-02-02T02:06:58.833Z,98370.64
2023-02-02T02:08:02.945Z,98358.23
2023-02-02T02:09:07.085Z,98358.75
2023-02-02T02:10:11.238Z,98363.45
2023-02-02T02:11:15.353Z,98375.88
2023-02-02T02:12:19.446Z,98380.5
2023-02-02T02:13:23.574Z,98384.22
2023-02-02T02:14:27.703Z,98377.77
2023-02-02T02:15:31.826Z,98380.63
2023-02-02T02:16:36.040Z,98381.27
2023-02-02T02:17:40.267Z,98385.05
2023-02-02T02:18:44.417Z,98386.59
2023-02-02T02:19:48.508Z,98388.26
2023-02-02T02:20:52.631Z,98388.34
2023-02-02T02:21:56.755Z,98390.11
2023-02-02T02:23:01.109Z,98387.73
2023-02-02T02:24:05.229Z,98393.8
2023-02-02T02:25:09.338Z,98391.84
2023-02-02T02:26:13.445Z,98397.41
2023-02-02T02:27:17.659Z,98397.2
2023-02-02T02:28:21.831Z,98393.61
2023-02-02T02:29:25.932Z,98398.24
2023-02-02T02:30:30.029Z,98397
2023-02-02T02:31:34.409Z,98386.2
2023-02-02T02:32:38.735Z,98401.75
2023-02-02T02:33:42.876Z,98397.3
2023-02-02T02:34:47.005Z,98394.84
2023-02-02T02:35:52.909Z,98395.56
2023-02-02T02:36:57.017Z,98398.34
2023-02-02T02:38:01.108Z,98402.34
2023-02-02T02:39:05.245Z,98393.31
2023-02-02T02:40:09.356Z,98394.77
2023-02-02T02:41:13.653Z,98397.92
2023-02-02T02:42:17.750Z,98402.25
2023-02-02T02:43:21.853Z,98399.26
2023-02-02T02:44:25.954Z,98401.02
2023-02-02T02:45:30.062Z,98407.59
2023-02-02T02:46:34.230Z,98395.88
2023-02-02T02:47:38.376Z,98407.17
2023-02-02T02:48:42.496Z,98404.7
2023-02-02T02:49:46.613Z,98397.73
2023-02-02T02:50:50.714Z,98403.16
2023-02-02T02:51:54.809Z,98408.81
2023-02-02T02:52:58.942Z,98413.44
2023-02-02T02:54:03.070Z,98415.5
2023-02-02T02:55:07.176Z,98414.66
2023-02-02T02:56:11.285Z,98414.37
2023-02-02T02:57:15.446Z,98417.55
2023-02-02T02:58:19.583Z,98416.83
2023-02-02T02:59:23.689Z,98423.39
2023-02-02T03:00:27.807Z,98424.11
2023-02-02T03:01:32.027Z,98422.77
2023-02-02T03:02:36.240Z,98415.17
2023-02-02T03:03:40.565Z,98422.97
2023-02-02T03:04:44.681Z,98431.71
2023-02-02T03:05:48.768Z,98423.18
2023-02-02T03:06:52.873Z,98425.56
2023-02-02T03:07:56.980Z,98425.36
2023-02-02T03:09:01.209Z,98429.15
2023-02-02T03:10:05.351Z,98425.26
2023-02-02T03:11:09.444Z,98432.84
2023-02-02T03:12:13.543Z,98433.98
2023-02-02T03:13:17.728Z,98436.56
2023-02-02T03:14:21.851Z,98435.84
2023-02-02T03:15:26.764Z,98436.67
2023-02-02T03:16:30.968Z,98440.36
2023-02-02T03:17:35.063Z,98431.33
2023-02-02T03:18:39.178Z,98443.56
2023-02-02T03:19:43.312Z,98440.7
2023-02-02T03:20:47.485Z,98437.42
2023-02-02T03:21:51.584Z,98446.66
2023-02-02T03:22:55.698Z,98450.46
2023-02-02T03:23:59.804Z,98450.98
2023-02-02T03:25:03.920Z,98446.16
2023-02-02T03:26:08.033Z,98444.82
2023-02-02T03:27:12.146Z,98446.45
2023-02-02T03:28:16.240Z,98443.16
2023-02-02T03:29:20.428Z,98449.72
2023-02-02T03:30:24.692Z,98447.86
2023-02-02T03:31:29.023Z,98444.16
2023-02-02T03:32:33.314Z,98445.5
2023-02-02T03:33:37.401Z,98450.03
2023-02-02T03:34:41.499Z,98445.2
2023-02-02T03:35:45.680Z,98453.3
2023-02-02T03:36:49.785Z,98450.23
2023-02-02T03:37:53.884Z,98455.86
2023-02-02T03:38:58.002Z,98452.7
2023-02-02T03:40:02.116Z,98452.27
2023-02-02T03:41:06.266Z,98449.76
2023-02-02T03:42:10.370Z,98447.99
2023-02-02T03:43:14.489Z,98448.11
2023-02-02T03:44:18.581Z,98443.99
2023-02-02T03:45:22.972Z,98456.63
2023-02-02T03:46:27.671Z,98457.66
2023-02-02T03:47:31.843Z,98444.82
2023-02-02T03:48:35.914Z,98444.92
2023-02-02T03:49:40.021Z,98447.47
2023-02-02T03:50:44.107Z,98446.45
2023-02-02T03:51:48.208Z,98451.08
2023-02-02T03:52:52.324Z,98449.22
2023-02-02T03:53:56.458Z,98440.08
2023-02-02T03:55:00.558Z,98443.06
2023-02-02T03:56:04.653Z,98445.02
2023-02-02T03:57:08.783Z,98446.65
2023-02-02T03:58:12.888Z,98445.23
2023-02-02T03:59:16.992Z,98447.17
2023-02-02T04:00:21.108Z,98446.77
2023-02-02T04:01:25.342Z,98442.24
2023-02-02T04:02:29.563Z,98438.44
2023-02-02T04:03:33.719Z,98439.98
2023-02-02T04:04:37.840Z,98440.59
2023-02-02T04:05:41.929Z,98445.2
2023-02-02T04:06:46.101Z,98444.8
2023-02-02T04:07:50.235Z,98439.95
2023-02-02T04:08:54.353Z,98444.37
2023-02-02T04:09:58.473Z,98446.31
2023-02-02T04:11:02.583Z,98440.88
2023-02-02T04:12:06.713Z,98445.5
2023-02-02T04:13:10.840Z,98445.39
2023-02-02T04:14:15.055Z,98446.31
2023-02-02T04:15:19.264Z,98448.06
2023-02-02T04:16:23.800Z,98443.23
2023-02-02T04:17:27.983Z,98441.05
2023-02-02T04:18:32.148Z,98453.17
2023-02-02T04:19:36.264Z,98449.37
2023-02-02T04:20:40.379Z,98446.81
2023-02-02T04:21:44.518Z,98439.92
2023-02-02T04:22:48.638Z,98452.23
2023-02-02T04:23:52.828Z,98448.23
2023-02-02T04:24:56.948Z,98457.8
2023-02-02T04:27:47.354Z,98454.52
2023-02-02T04:28:51.451Z,98451.55
2023-02-02T04:29:55.654Z,98452.65
2023-02-02T04:30:59.864Z,98448.95
2023-02-02T04:32:04.091Z,98442.19
2023-02-02T04:33:08.197Z,98448.88
2023-02-02T04:34:12.320Z,98452.16
2023-02-02T04:35:16.471Z,98444.05
2023-02-02T04:36:20.677Z,98434.58
2023-02-02T04:37:24.767Z,98446.61
2023-02-02T04:38:28.896Z,98448.14
2023-02-02T04:39:33.023Z,98440.36
2023-02-02T04:40:37.134Z,98434.38
2023-02-02T04:41:41.239Z,98438.59
2023-02-02T04:42:45.411Z,98435.42
2023-02-02T04:43:49.536Z,98438.82
2023-02-02T04:44:53.688Z,98440.56
2023-02-02T04:45:57.874Z,98452.68
2023-02-02T04:47:02.101Z,98448.91
2023-02-02T04:48:06.209Z,98441.7
2023-02-02T04:49:10.304Z,98448.91
2023-02-02T04:50:14.504Z,98449.39
2023-02-02T04:51:18.719Z,98450.03
2023-02-02T04:52:22.872Z,98443.64
2023-02-02T04:53:26.956Z,98446.95
2023-02-02T04:54:31.119Z,98439.42
2023-02-02T04:55:35.268Z,98438.5
2023-02-02T04:56:39.400Z,98451.46
2023-02-02T04:57:43.533Z,98441.78
2023-02-02T04:58:47.679Z,98442.1
2023-02-02T04:59:51.780Z,98442.19
2023-02-02T05:00:55.982Z,98438.78
2023-02-02T05:02:00.196Z,98443.41
2023-02-02T05:03:04.328Z,98446
2023-02-02T05:04:08.526Z,98438.87
2023-02-02T05:05:12.767Z,98442.16
2023-02-02T05:06:17.041Z,98449.97
2023-02-02T05:07:21.171Z,98451.31
2023-02-02T05:08:25.453Z,98442.16
2023-02-02T05:09:29.593Z,98452.04
2023-02-02T05:10:33.706Z,98447.3
2023-02-02T05:11:37.828Z,98442.06
2023-02-02T05:12:41.962Z,98440.84
2023-02-02T05:13:46.089Z,98447.83
2023-02-02T05:14:50.205Z,98444.34
2023-02-02T05:15:54.312Z,98440.53
2023-02-02T05:16:58.553Z,98445.97
2023-02-02T05:18:02.718Z,98437.65
2023-02-02T05:19:06.832Z,98442.07
2023-02-02T05:20:10.936Z,98441.87
2023-02-02T05:21:15.036Z,98441.87
2023-02-02T05:22:19.162Z,98444.22
2023-02-02T05:23:23.315Z,98447.33
2023-02-02T05:24:27.442Z,98441.38
2023-02-02T05:25:31.565Z,98443.52
2023-02-02T05:26:35.950Z,98445.55
2023-02-02T05:27:40.113Z,98435.59
2023-02-02T05:28:44.206Z,98442.39
2023-02-02T05:29:48.371Z,98437.25
2023-02-02T05:30:52.617Z,98443.29
2023-02-02T05:31:56.922Z,98432.83
2023-02-02T05:33:01.165Z,98437.53
2023-02-02T05:34:05.305Z,98439.39
2023-02-02T05:35:09.440Z,98445.96
2023-02-02T05:36:13.612Z,98446.77
2023-02-02T05:37:17.738Z,98439.07
2023-02-02T05:38:21.907Z,98439.19
2023-02-02T05:39:26.052Z,98435.05
2023-02-02T05:40:30.176Z,98444.94
2023-02-02T05:41:34.329Z,98437.41
2023-02-02T05:42:38.446Z,98432.39
2023-02-02T05:43:42.571Z,98442.67
2023-02-02T05:44:46.687Z,98447.42
2023-02-02T05:45:50.891Z,98440.94
2023-02-02T05:46:55.055Z,98445.87
2023-02-02T05:47:59.159Z,98458.11
2023-02-02T05:49:03.292Z,98441.17
2023-02-02T05:50:07.415Z,98452.48
2023-02-02T05:51:11.535Z,98443.61
2023-02-02T05:52:15.697Z,98452.77
2023-02-02T05:53:19.817Z,98448.55
2023-02-02T05:54:23.947Z,98443.32
2023-02-02T05:55:28.257Z,98445.39
2023-02-02T05:56:32.379Z,98450.41
2023-02-02T05:57:36.465Z,98446.41
2023-02-02T05:58:40.580Z,98451.14
2023-02-02T05:59:44.692Z,98450.73
2023-02-02T06:00:48.826Z,98455.16
2023-02-02T06:01:52.943Z,98444.98
2023-02-02T06:02:57.104Z,98444.16
2023-02-02T06:04:01.324Z,98449.72
2023-02-02T06:05:05.505Z,98451.26
2023-02-02T06:06:09.669Z,98439.84
2023-02-02T06:07:14.025Z,98440.97
2023-02-02T06:08:18.128Z,98440.24
2023-02-02T06:09:22.238Z,98438.82
2023-02-02T06:10:26.394Z,98435.83
2023-02-02T06:11:30.522Z,98432.66
2023-02-02T06:12:34.684Z,98428.77
2023-02-02T06:13:38.790Z,98429.38
2023-02-02T06:14:42.911Z,98428.53
2023-02-02T06:15:47.112Z,98430.19
2023-02-02T06:16:51.449Z,98424.23
2023-02-02T06:17:55.558Z,98422.08
2023-02-02T06:18:59.660Z,98418.8
2023-02-02T06:20:03.764Z,98424.14
2023-02-02T06:21:07.889Z,98421.15
2023-02-02T06:22:11.980Z,98419.81
2023-02-02T06:23:16.116Z,98422.69
2023-02-02T06:24:21.242Z,98425.36
2023-02-02T06:25:26.125Z,98427.62
2023-02-02T06:26:30.851Z,98423.33
2023-02-02T06:27:35.059Z,98425.27
2023-02-02T06:28:39.163Z,98426
2023-02-02T06:29:43.316Z,98433.81
2023-02-02T06:30:47.685Z,98430.01
2023-02-02T06:31:52.435Z,98439.97
2023-02-02T06:32:56.904Z,98434.54
2023-02-02T06:34:01.060Z,98432.59
2023-02-02T06:35:05.175Z,98433.2
2023-02-02T06:36:09.306Z,98435.95
2023-02-02T06:37:13.442Z,98433.41
2023-02-02T06:38:17.551Z,98434.83
2023-02-02T06:39:21.655Z,98427.97
2023-02-02T06:40:25.765Z,98430.2
2023-02-02T06:41:29.898Z,98422.63
2023-02-02T06:42:34.006Z,98428.46
2023-02-02T06:43:38.100Z,98432.47
2023-02-02T06:44:42.237Z,98436.8
2023-02-02T06:45:46.374Z,98434.23
2023-02-02T06:46:50.509Z,98431.65
2023-02-02T06:47:54.656Z,98430.75
2023-02-02T06:48:58.782Z,98433.22
2023-02-02T06:50:02.916Z,98434.84
2023-02-02T06:51:07.023Z,98434.84
2023-02-02T06:52:11.143Z,98432.17
2023-02-02T06:53:15.300Z,98423.33
2023-02-02T06:54:19.412Z,98432.16
2023-02-02T06:55:24.259Z,98427.95
2023-02-02T06:56:29.127Z,98427.55
2023-02-02T06:57:33.250Z,98430.83
2023-02-02T06:58:37.395Z,98421.91
2023-02-02T06:59:41.598Z,98425.28
2023-02-02T07:00:45.708Z,98434.34
2023-02-02T07:01:50.005Z,98431.34
2023-02-02T07:02:54.372Z,98425.19
2023-02-02T07:03:58.572Z,98425.39
2023-02-02T07:05:02.708Z,98415.13
2023-02-02T07:06:06.800Z,98420.48
2023-02-02T07:07:10.886Z,98429.11
2023-02-02T07:08:15.002Z,98423.44
2023-02-02T07:09:19.103Z,98415.02
2023-02-02T07:11:17.036Z,98419.14
2023-02-02T07:12:22.064Z,98424.69
2023-02-02T07:13:26.404Z,98429.7
2023-02-02T07:14:30.565Z,98427.96
2023-02-02T07:15:34.668Z,98426.83
2023-02-02T07:16:38.975Z,98427.23
2023-02-02T07:17:43.115Z,98430.02
2023-02-02T07:18:47.249Z,98433.63
2023-02-02T07:19:51.411Z,98435.77
2023-02-02T07:20:55.539Z,98439.57
2023-02-02T07:21:59.659Z,98436.17
2023-02-02T07:23:03.806Z,98434.74
2023-02-02T07:24:07.958Z,98442.44
2023-02-02T07:25:12.058Z,98430.5
2023-02-02T07:26:16.211Z,98438.22
2023-02-02T07:27:20.555Z,98440.25
2023-02-02T07:28:24.657Z,98435.95
2023-02-02T07:29:28.766Z,98437.78
2023-02-02T07:30:33.023Z,98442.91
2023-02-02T07:31:38.064Z,98449.59
2023-02-02T07:32:42.302Z,98454.03
2023-02-02T07:33:46.486Z,98451.86
2023-02-02T07:34:50.606Z,98448.38
2023-02-02T07:35:54.723Z,98445.69
2023-02-02T07:36:58.885Z,98446.42
2023-02-02T07:38:02.993Z,98448.69
2023-02-02T07:39:07.108Z,98451.67
2023-02-02T07:40:11.232Z,98453.62
2023-02-02T07:41:15.337Z,98445.27
2023-02-02T07:42:19.476Z,98454.34
2023-02-02T07:43:23.585Z,98459.36
2023-02-02T07:44:27.700Z,98455.34
2023-02-02T07:45:31.872Z,98462.55
2023-02-02T07:46:37.271Z,98471.49
2023-02-02T07:47:43.120Z,98456.19
2023-02-02T07:48:47.270Z,98456.78
2023-02-02T07:49:51.448Z,98453.19
2023-02-02T07:50:55.580Z,98454.63
2023-02-02T07:51:59.747Z,98454.84
2023-02-02T07:53:03.870Z,98452.17
2023-02-02T07:54:07.979Z,98436.55
2023-02-02T07:55:15.886Z,98441.36
2023-02-02T07:56:20.027Z,98452.58
2023-02-02T07:57:24.259Z,98443.31
2023-02-02T07:58:28.471Z,98443.42
2023-02-02T07:59:33.542Z,98446.49
2023-02-02T08:00:37.769Z,98442.72
2023-02-02T08:01:42.061Z,98435.52
2023-02-02T08:02:46.362Z,98435.41
2023-02-02T08:03:50.662Z,98430.8
2023-02-02T08:04:54.808Z,98441.88
2023-02-02T08:05:58.938Z,98437.59
2023-02-02T08:07:03.096Z,98435.41
2023-02-02T08:08:07.222Z,98439.41
2023-02-02T08:09:11.345Z,98431.83
2023-02-02T08:10:15.432Z,98435.6
2023-02-02T08:11:19.569Z,98425.95
2023-02-02T08:12:25.797Z,98440.73
2023-02-02T08:13:29.976Z,98429.23
2023-02-02T08:14:34.107Z,98436.03
2023-02-02T08:15:38.239Z,98429.44
2023-02-02T08:16:42.404Z,98439.22
2023-02-02T08:17:46.563Z,98425.95
2023-02-02T08:18:50.694Z,98432.2
2023-02-02T08:19:54.810Z,98430.67
2023-02-02T08:20:58.934Z,98422.66
2023-02-02T08:22:03.060Z,98423.19
2023-02-02T08:23:07.277Z,98428.61
2023-02-02T08:24:11.408Z,98430.47
2023-02-02T08:25:15.576Z,98420.2
2023-02-02T08:26:19.845Z,98412.5
2023-02-02T08:27:24.004Z,98414.14
2023-02-02T08:28:28.120Z,98420.51
2023-02-02T08:29:32.250Z,98411.88
2023-02-02T08:30:36.461Z,98409.5
2023-02-02T08:31:40.769Z,98423.37
2023-02-02T08:32:45.231Z,98424.5
2023-02-02T08:33:49.354Z,98416.41
2023-02-02T08:34:53.511Z,98426.45
2023-02-02T08:35:57.613Z,98409.72
2023-02-02T08:37:01.724Z,98424.5
2023-02-02T08:38:05.879Z,98422.03
2023-02-02T08:39:10.017Z,98427.28
2023-02-02T08:40:14.246Z,98422.03
2023-02-02T08:41:18.462Z,98417.33
2023-02-02T08:42:22.621Z,98412.47
2023-02-02T08:43:26.993Z,98418.02
2023-02-02T08:46:05.204Z,98425.41
2023-02-02T08:47:12.387Z,98414.85
2023-02-02T08:48:16.862Z,98413.39
2023-02-02T08:49:20.979Z,98415.98
2023-02-02T08:50:25.131Z,98413.39
2023-02-02T08:51:29.244Z,98410.63
2023-02-02T08:52:33.354Z,98414.84
2023-02-02T08:53:37.483Z,98416.56
2023-02-02T08:54:41.607Z,98419.04
2023-02-02T08:55:45.738Z,98421.52
2023-02-02T08:56:49.855Z,98420.08
2023-02-02T08:57:53.994Z,98420.69
2023-02-02T08:58:58.106Z,98417.09
2023-02-02T09:00:02.238Z,98426.55
2023-02-02T09:01:06.479Z,98419.97
2023-02-02T09:02:10.830Z,98418.95
2023-02-02T09:03:14.984Z,98419.23
2023-02-02T09:04:19.106Z,98429.5
2023-02-02T09:05:24.058Z,98420.69
2023-02-02T09:06:29.023Z,98416.27
2023-02-02T09:07:33.263Z,98417.09
2023-02-02T09:08:37.437Z,98409.59
2023-02-02T09:09:41.695Z,98401.89
2023-02-02T09:10:45.847Z,98413.48
2023-02-02T09:11:50.056Z,98406.51
2023-02-02T09:12:54.158Z,98404.04
2023-02-02T09:13:58.278Z,98402.48
2023-02-02T09:15:02.416Z,98417.89
2023-02-02T09:16:06.726Z,98423.34
2023-02-02T09:17:10.976Z,98423.53
2023-02-02T09:18:15.140Z,98421.39
2023-02-02T09:19:19.322Z,98421.88
2023-02-02T09:20:23.453Z,98429.6
2023-02-02T09:21:27.609Z,98422.5
2023-02-02T09:22:31.757Z,98426.8
2023-02-02T09:23:35.900Z,98416.34
2023-02-02T09:24:40.025Z,98407.11
2023-02-02T09:25:44.218Z,98418.72
2023-02-02T09:26:48.538Z,98406.91
2023-02-02T09:27:52.816Z,98403.91
2023-02-02T09:28:56.942Z,98406.7
2023-02-02T09:30:01.078Z,98416.55
2023-02-02T09:31:05.338Z,98431.77
2023-02-02T09:32:09.701Z,98433.2
2023-02-02T09:33:13.922Z,98432.16
2023-02-02T09:34:18.066Z,98434.12
2023-02-02T09:35:22.603Z,98437.5
2023-02-02T09:36:27.464Z,98446.55
2023-02-02T09:37:31.564Z,98430.3
2023-02-02T09:38:35.707Z,98439.35
2023-02-02T09:39:39.830Z,98438.42
2023-02-02T09:40:43.971Z,98446.94
2023-02-02T09:41:48.110Z,98439.98
2023-02-02T09:42:52.240Z,98445.11
2023-02-02T09:43:56.371Z,98446.64
2023-02-02T09:45:00.540Z,98451.27
2023-02-02T09:46:04.780Z,98456.11
2023-02-02T09:47:09.001Z,98450.86
2023-02-02T09:48:13.093Z,98445.42
2023-02-02T09:49:17.261Z,98440.39
2023-02-02T09:50:21.527Z,98453.23
2023-02-02T09:51:25.656Z,98458.99
2023-02-02T09:52:29.777Z,98457.79
2023-02-02T09:53:38.432Z,98470.42
2023-02-02T09:54:58.334Z,98462.81
2023-02-02T09:56:02.441Z,98467.05
2023-02-02T09:57:06.564Z,98458.91
2023-02-02T09:58:10.686Z,98462.2
2023-02-02T09:59:24.278Z,98470.11
2023-02-02T10:00:28.606Z,98469.83
2023-02-02T10:01:32.829Z,98471.88
2023-02-02T10:02:37.031Z,98475.78
2023-02-02T10:03:41.259Z,98484.31
2023-02-02T10:04:45.431Z,98482.98
2023-02-02T10:05:49.590Z,98481.95
2023-02-02T10:06:53.780Z,98480.52
2023-02-02T10:07:57.927Z,98493.97
2023-02-02T10:09:02.065Z,98489.98
2023-02-02T10:10:06.204Z,98495
2023-02-02T10:11:10.371Z,98488.62
2023-02-02T10:12:14.530Z,98487.59
2023-02-02T10:13:18.684Z,98489.57
2023-02-02T10:14:22.885Z,98480.5
2023-02-02T10:15:27.824Z,98487.7
2023-02-02T10:16:32.130Z,98484.3
2023-02-02T10:17:36.223Z,98480.2
2023-02-02T10:18:40.481Z,98484.3
2023-02-02T10:19:44.603Z,98487.89
2023-02-02T10:20:48.845Z,98490.55
2023-02-02T10:21:53.001Z,98491.61
2023-02-02T10:22:57.105Z,98476.59
2023-02-02T10:24:03.317Z,98488.31
2023-02-02T10:25:07.445Z,98484.41
2023-02-02T10:26:11.626Z,98501.08
2023-02-02T10:27:15.755Z,98496.23
2023-02-02T10:28:19.882Z,98495.63
2023-02-02T10:29:24.010Z,98492.66
2023-02-02T10:30:28.588Z,98483.52
2023-02-02T10:31:33.068Z,98495.2
2023-02-02T10:32:37.470Z,98499.42
2023-02-02T10:33:41.570Z,98509.44
2023-02-02T10:34:45.754Z,98496.71
2023-02-02T10:35:49.976Z,98493.41
2023-02-02T10:36:54.096Z,98494.14
2023-02-02T10:37:58.207Z,98509.25
2023-02-02T10:39:02.348Z,98497.94
2023-02-02T10:40:06.657Z,98503.29
2023-02-02T10:41:10.924Z,98509.97
2023-02-02T10:42:15.128Z,98500.28
2023-02-02T10:43:19.278Z,98507.17
2023-02-02T10:44:23.405Z,98509.22
2023-02-02T10:45:27.531Z,98510.97
2023-02-02T10:46:32.022Z,98518.16
2023-02-02T10:47:36.249Z,98511.6
2023-02-02T10:48:40.427Z,98517.83
2023-02-02T10:49:44.551Z,98516.69
2023-02-02T10:50:48.726Z,98523.05
2023-02-02T10:51:52.880Z,98518.84
2023-02-02T10:52:57.039Z,98515.56
2023-02-02T10:54:01.173Z,98529.89
2023-02-02T10:55:05.703Z,98519.71
2023-02-02T10:56:09.898Z,98486.25
2023-02-02T10:57:14.077Z,98517.98
2023-02-02T10:58:18.219Z,98519.33
2023-02-02T10:59:22.347Z,98519.02
2023-02-02T11:00:27.238Z,98523.64
2023-02-02T11:01:32.142Z,98529.99
2023-02-02T11:02:36.446Z,98517.48
2023-02-02T11:03:40.709Z,98525.19
2023-02-02T11:04:44.832Z,98517.58
2023-02-02T11:05:48.989Z,98530.02
2023-02-02T11:06:53.443Z,98527.55
2023-02-02T11:07:57.913Z,98523.53
2023-02-02T11:09:02.092Z,98523.74
2023-02-02T11:10:06.176Z,98526.41
2023-02-02T11:11:10.425Z,98529.61
2023-02-02T11:12:14.644Z,98528.78
2023-02-02T11:13:19.279Z,98528.27
2023-02-02T11:14:23.389Z,98532.67
2023-02-02T11:15:27.518Z,98517.67
2023-02-02T11:16:44.606Z,98538.14
2023-02-02T11:17:48.944Z,98526.72
2023-02-02T11:18:53.251Z,98521.16
2023-02-02T11:19:57.401Z,98529.19
2023-02-02T11:21:01.583Z,98529.8
2023-02-02T11:22:05.708Z,98526.31
2023-02-02T11:23:09.825Z,98517.05
2023-02-02T11:24:13.976Z,98522
2023-02-02T11:25:18.085Z,98541.41
2023-02-02T11:26:22.395Z,98540.28
2023-02-02T11:27:26.539Z,98543.9
2023-02-02T11:28:30.708Z,98533.01
2023-02-02T11:29:34.885Z,98543.17
2023-02-02T11:30:39.101Z,98537.73
2023-02-02T11:31:43.368Z,98539.98
2023-02-02T11:32:47.616Z,98537.32
2023-02-02T11:33:51.738Z,98527.56
2023-02-02T11:34:55.891Z,98532.91
2023-02-02T11:36:00.024Z,98537.53
2023-02-02T11:37:04.183Z,98542.06
2023-02-02T11:38:08.301Z,98536.7
2023-02-02T11:39:12.503Z,98531.38
2023-02-02T11:40:16.709Z,98531.14
2023-02-02T11:41:20.841Z,98541.75
2023-02-02T11:42:24.961Z,98544.02
2023-02-02T11:43:29.084Z,98536.8
2023-02-02T11:44:33.315Z,98546.28
2023-02-02T11:45:37.466Z,98540.61
2023-02-02T11:46:41.761Z,98550.7
2023-02-02T11:47:46.010Z,98550.7
2023-02-02T11:48:52.743Z,98546.06
2023-02-02T11:49:59.978Z,98551.63
2023-02-02T11:51:07.662Z,98545.64
2023-02-02T11:52:16.069Z,98548.33
2023-02-02T11:53:20.205Z,98550.39
2023-02-02T11:54:24.297Z,98544.52
2023-02-02T11:55:28.410Z,98547.39
2023-02-02T11:56:32.533Z,98555.53
2023-02-02T11:57:36.634Z,98555.53
2023-02-02T11:58:40.746Z,98557.56
2023-02-02T11:59:44.875Z,98556.55
2023-02-02T12:00:48.977Z,98565.91
2023-02-02T12:01:53.240Z,98560.57
2023-02-02T12:02:57.424Z,98560.36
2023-02-02T12:04:01.978Z,98554.71
2023-02-02T12:05:06.216Z,98556.45
2023-02-02T12:06:10.344Z,98555.41
2023-02-02T12:07:14.508Z,98562.53
2023-02-02T12:08:18.629Z,98562.22
2023-02-02T12:09:22.746Z,98563.44
2023-02-02T12:10:27.805Z,98561.7
2023-02-02T12:11:36.046Z,98566.54
2023-02-02T12:12:40.179Z,98567.64
2023-02-02T12:13:44.289Z,98562.41
2023-02-02T12:14:48.477Z,98569
2023-02-02T12:15:52.712Z,98573
2023-02-02T12:16:56.884Z,98583.7
2023-02-02T12:18:01.072Z,98588.61
2023-02-02T12:19:05.223Z,98578.23
2023-02-02T12:20:09.656Z,98576.8
2023-02-02T12:21:13.782Z,98586.27
2023-02-02T12:22:18.061Z,98583.7
2023-02-02T12:23:22.341Z,98589.14
2023-02-02T12:24:26.783Z,98592.42
2023-02-02T12:25:30.891Z,98593.38
2023-02-02T12:26:35.145Z,98587.83
2023-02-02T12:27:39.423Z,98587.92
2023-02-02T12:28:43.561Z,98597.48
2023-02-02T12:29:47.689Z,98581.97
2023-02-02T12:30:51.907Z,98590.61
2023-02-02T12:31:56.192Z,98594.7
2023-02-02T12:33:00.384Z,98591.02
2023-02-02T12:34:04.534Z,98602.84
2023-02-02T12:35:08.664Z,98604.88
2023-02-02T12:36:12.798Z,98601.31
2023-02-02T12:37:16.934Z,98601.3
2023-02-02T12:38:21.091Z,98586.58
2023-02-02T12:39:25.198Z,98604.28
2023-02-02T12:40:29.577Z,98598
2023-02-02T12:41:33.844Z,98608.81
2023-02-02T12:42:38.043Z,98606.64